createdAt,value
2022-10-01T00:00:47.049Z,22.24
2022-10-01T00:01:49.340Z,22.24
2022-10-01T00:02:53.143Z,22.23
2022-10-01T00:03:55.357Z,22.22
2022-10-01T00:04:57.462Z,22.22
2022-10-01T00:06:07.702Z,22.21
2022-10-01T00:07:09.949Z,22.19
2022-10-01T00:08:15.846Z,22.20
2022-10-01T00:09:18.008Z,22.20
2022-10-01T00:10:21.071Z,22.20
2022-10-01T00:11:26.343Z,22.19
2022-10-01T00:12:29.353Z,22.18
2022-10-01T00:13:32.470Z,22.17
2022-10-01T00:14:35.753Z,22.17
2022-10-01T00:15:42.315Z,22.16
2022-10-01T00:16:44.745Z,22.15
2022-10-01T00:17:47.077Z,22.15
2022-10-01T00:18:49.534Z,22.14
2022-10-01T00:19:53.773Z,22.14
2022-10-01T00:20:55.930Z,22.14
2022-10-01T00:21:58.050Z,22.14
2022-10-01T00:23:00.132Z,22.15
2022-10-01T00:24:04.064Z,22.14
2022-10-01T00:25:07.424Z,22.15
2022-10-01T00:26:23.929Z,22.14
2022-10-01T00:27:26.672Z,22.14
2022-10-01T00:28:29.255Z,22.14
2022-10-01T00:29:31.664Z,22.15
2022-10-01T00:30:37.222Z,22.15
2022-10-01T00:31:38.576Z,22.15
2022-10-01T00:32:42.049Z,22.14
2022-10-01T00:33:44.164Z,22.14
2022-10-01T00:34:46.381Z,22.13
2022-10-01T00:35:49.239Z,22.14
2022-10-01T00:36:51.842Z,22.14
2022-10-01T00:37:54.983Z,22.11
2022-10-01T00:38:57.100Z,22.11
2022-10-01T00:39:59.358Z,22.15
2022-10-01T00:41:02.417Z,22.14
2022-10-01T00:42:16.752Z,22.14
2022-10-01T00:43:22.318Z,22.15
2022-10-01T00:44:31.512Z,22.15
2022-10-01T00:45:33.828Z,22.15
2022-10-01T00:46:41.054Z,22.14
2022-10-01T00:47:49.654Z,22.14
2022-10-01T00:48:56.522Z,22.13
2022-10-01T00:50:11.263Z,22.12
2022-10-01T00:51:14.089Z,22.11
2022-10-01T00:52:20.101Z,22.09
2022-10-01T00:53:23.626Z,22.10
2022-10-01T00:54:28.781Z,22.11
2022-10-01T00:55:37.184Z,22.11
2022-10-01T00:56:39.546Z,22.10
2022-10-01T00:57:42.349Z,22.11
2022-10-01T00:58:45.337Z,22.10
2022-10-01T00:59:47.458Z,22.10
2022-10-01T01:00:50.472Z,22.09
2022-10-01T01:01:53.247Z,22.09
2022-10-01T01:02:55.664Z,22.09
2022-10-01T01:03:57.777Z,22.09
2022-10-01T01:05:00.174Z,22.10
2022-10-01T01:06:02.375Z,22.10
2022-10-01T01:07:05.286Z,22.11
2022-10-01T01:08:07.541Z,22.11
2022-10-01T01:09:09.635Z,22.12
2022-10-01T01:10:13.578Z,22.11
2022-10-01T01:11:26.091Z,22.11
2022-10-01T01:12:32.010Z,22.12
2022-10-01T01:13:53.189Z,22.10
2022-10-01T01:15:24.567Z,22.10
2022-10-01T01:16:33.204Z,22.10
2022-10-01T01:17:48.432Z,22.07
2022-10-01T01:18:57.537Z,22.07
2022-10-01T01:20:19.363Z,22.06
2022-10-01T01:21:32.574Z,22.05
2022-10-01T01:22:36.803Z,22.04
2022-10-01T01:24:11.960Z,22.05
2022-10-01T01:25:18.660Z,22.05
2022-10-01T01:26:30.563Z,22.04
2022-10-01T01:27:37.596Z,22.03
2022-10-01T01:28:42.072Z,22.02
2022-10-01T01:29:57.693Z,22.01
2022-10-01T01:31:07.342Z,22.01
2022-10-01T01:32:16.864Z,22.00
2022-10-01T01:33:21.337Z,21.99
2022-10-01T01:34:28.645Z,21.97
2022-10-01T01:35:42.459Z,21.98
2022-10-01T01:36:46.617Z,22.00
2022-10-01T01:37:52.180Z,21.99
2022-10-01T01:39:00.101Z,21.99
2022-10-01T01:40:02.559Z,22.01
2022-10-01T01:41:05.588Z,22.02
2022-10-01T01:42:11.869Z,22.00
2022-10-01T01:43:14.704Z,22.02
2022-10-01T01:44:21.468Z,22.02
2022-10-01T01:45:27.689Z,22.02
2022-10-01T01:46:30.914Z,22.02
2022-10-01T01:47:33.087Z,22.02
2022-10-01T01:48:35.734Z,22.03
2022-10-01T01:49:38.930Z,22.03
2022-10-01T01:50:45.115Z,22.03
2022-10-01T01:53:01.884Z,22.16
2022-10-01T01:54:04.745Z,22.06
2022-10-01T01:55:09.120Z,22.06
2022-10-01T01:56:12.198Z,22.06
2022-10-01T01:57:15.616Z,22.06
2022-10-01T01:58:19.356Z,22.07
2022-10-01T01:59:21.837Z,22.08
2022-10-01T02:00:24.044Z,22.09
2022-10-01T02:01:38.570Z,22.11
2022-10-01T02:03:55.825Z,22.23
2022-10-01T02:05:15.379Z,22.13
2022-10-01T02:06:30.301Z,22.13
2022-10-01T02:09:08.038Z,22.21
2022-10-01T02:10:20.649Z,22.11
2022-10-01T02:11:26.633Z,22.11
2022-10-01T02:12:59.801Z,22.10
2022-10-01T02:15:45.212Z,22.18
2022-10-01T02:18:29.147Z,22.15
2022-10-01T02:19:38.002Z,22.04
2022-10-01T02:21:05.651Z,22.04
2022-10-01T02:22:15.241Z,22.03
2022-10-01T02:23:20.851Z,22.02
2022-10-01T02:24:32.548Z,22.01
2022-10-01T02:25:42.473Z,21.99
2022-10-01T02:26:45.179Z,21.99
2022-10-01T02:27:50.808Z,21.99
2022-10-01T02:28:55.328Z,22.00
2022-10-01T02:29:58.793Z,21.99
2022-10-01T02:31:01.274Z,21.99
2022-10-01T02:32:03.649Z,22.00
2022-10-01T02:33:06.373Z,22.01
2022-10-01T02:34:12.485Z,21.99
2022-10-01T02:35:14.882Z,22.00
2022-10-01T02:36:17.344Z,22.01
2022-10-01T02:37:21.495Z,22.02
2022-10-01T02:38:23.766Z,22.02
2022-10-01T02:39:27.484Z,22.02
2022-10-01T02:40:30.161Z,22.03
2022-10-01T02:41:34.608Z,22.02
2022-10-01T02:42:36.980Z,22.01
2022-10-01T02:44:54.900Z,22.13
2022-10-01T02:46:01.564Z,22.03
2022-10-01T02:48:19.496Z,22.13
2022-10-01T02:49:21.599Z,22.03
2022-10-01T02:50:25.566Z,22.01
2022-10-01T02:51:41.119Z,22.02
2022-10-01T02:54:28.116Z,22.14
2022-10-01T02:55:33.233Z,22.04
2022-10-01T02:56:36.755Z,22.04
2022-10-01T02:57:38.985Z,22.02
2022-10-01T02:58:41.574Z,22.03
2022-10-01T02:59:43.860Z,22.03
2022-10-01T03:00:47.203Z,22.04
2022-10-01T03:01:49.423Z,22.05
2022-10-01T03:02:51.910Z,22.06
2022-10-01T03:03:54.165Z,22.06
2022-10-01T03:04:56.679Z,22.05
2022-10-01T03:05:59.092Z,22.07
2022-10-01T03:07:01.428Z,22.06
2022-10-01T03:08:03.537Z,22.07
2022-10-01T03:09:06.007Z,22.07
2022-10-01T03:10:10.274Z,22.07
2022-10-01T03:11:12.697Z,22.07
2022-10-01T03:12:15.411Z,22.10
2022-10-01T03:13:17.527Z,22.10
2022-10-01T03:14:19.654Z,22.10
2022-10-01T03:15:21.779Z,22.11
2022-10-01T03:16:25.795Z,22.11
2022-10-01T03:17:28.197Z,22.11
2022-10-01T03:18:30.468Z,22.11
2022-10-01T03:19:32.594Z,22.11
2022-10-01T03:20:34.919Z,22.11
2022-10-01T03:21:37.160Z,22.12
2022-10-01T03:22:39.420Z,22.12
2022-10-01T03:23:41.509Z,22.13
2022-10-01T03:24:44.724Z,22.14
2022-10-01T03:25:46.884Z,22.12
2022-10-01T03:26:49.033Z,22.13
2022-10-01T03:27:51.182Z,22.12
2022-10-01T03:28:53.360Z,22.12
2022-10-01T03:29:55.605Z,22.12
2022-10-01T03:31:05.718Z,22.11
2022-10-01T03:32:08.012Z,22.12
2022-10-01T03:33:10.119Z,22.11
2022-10-01T03:34:12.205Z,22.12
2022-10-01T03:35:14.439Z,22.13
2022-10-01T03:36:16.957Z,22.13
2022-10-01T03:37:20.262Z,22.14
2022-10-01T03:38:22.392Z,22.13
2022-10-01T03:39:25.013Z,22.10
2022-10-01T03:40:27.225Z,22.10
2022-10-01T03:41:29.357Z,22.10
2022-10-01T03:42:31.651Z,22.10
2022-10-01T03:43:33.930Z,22.10
2022-10-01T03:44:36.006Z,22.09
2022-10-01T03:45:38.245Z,22.09
2022-10-01T03:46:40.638Z,22.10
2022-10-01T03:47:43.482Z,22.10
2022-10-01T03:48:45.600Z,22.10
2022-10-01T03:49:47.701Z,22.10
2022-10-01T03:50:54.252Z,22.11
2022-10-01T03:51:56.431Z,22.10
2022-10-01T03:52:58.549Z,22.11
2022-10-01T03:54:00.643Z,22.10
2022-10-01T03:55:02.951Z,22.10
2022-10-01T03:56:06.123Z,22.10
2022-10-01T03:57:08.511Z,22.11
2022-10-01T03:58:12.003Z,22.12
2022-10-01T03:59:14.339Z,22.14
2022-10-01T04:00:16.892Z,22.14
2022-10-01T04:01:19.058Z,22.14
2022-10-01T04:02:22.158Z,22.15
2022-10-01T04:03:24.496Z,22.15
2022-10-01T04:04:28.587Z,22.14
2022-10-01T04:05:30.756Z,22.15
2022-10-01T04:06:33.057Z,22.15
2022-10-01T04:07:35.131Z,22.16
2022-10-01T04:08:37.341Z,22.16
2022-10-01T04:09:40.617Z,22.16
2022-10-01T04:10:42.769Z,22.15
2022-10-01T04:11:45.519Z,22.14
2022-10-01T04:12:47.614Z,22.14
2022-10-01T04:13:49.991Z,22.14
2022-10-01T04:14:52.586Z,22.15
2022-10-01T04:15:55.230Z,22.14
2022-10-01T04:16:57.654Z,22.14
2022-10-01T04:18:00.116Z,22.14
2022-10-01T04:19:03.399Z,22.14
2022-10-01T04:21:21.589Z,22.16
2022-10-01T04:22:24.587Z,22.16
2022-10-01T04:23:27.294Z,22.15
2022-10-01T04:24:29.934Z,22.15
2022-10-01T04:25:32.042Z,22.15
2022-10-01T04:26:34.142Z,22.16
2022-10-01T04:27:39.937Z,22.14
2022-10-01T04:28:42.189Z,22.14
2022-10-01T04:29:44.277Z,22.14
2022-10-01T04:30:46.389Z,22.14
2022-10-01T04:31:48.527Z,22.14
2022-10-01T04:32:50.680Z,22.14
2022-10-01T04:33:53.977Z,22.13
2022-10-01T04:34:56.032Z,22.14
2022-10-01T04:35:58.116Z,22.14
2022-10-01T04:37:00.487Z,22.13
2022-10-01T04:38:10.492Z,22.13
2022-10-01T04:39:13.013Z,22.13
2022-10-01T04:40:15.646Z,22.14
2022-10-01T04:41:18.064Z,22.12
2022-10-01T04:42:20.564Z,22.11
2022-10-01T04:43:22.661Z,22.12
2022-10-01T04:44:24.644Z,22.12
2022-10-01T04:45:27.207Z,22.12
2022-10-01T04:46:30.075Z,22.12
2022-10-01T04:47:37.367Z,22.11
2022-10-01T04:48:37.521Z,22.10
2022-10-01T04:49:40.684Z,22.11
2022-10-01T04:50:42.813Z,22.10
2022-10-01T04:51:44.937Z,22.09
2022-10-01T04:52:47.007Z,22.09
2022-10-01T04:53:49.111Z,22.07
2022-10-01T04:54:52.185Z,22.08
2022-10-01T04:55:54.415Z,22.09
2022-10-01T04:56:56.735Z,22.08
2022-10-01T04:57:59.912Z,22.07
2022-10-01T04:59:02.135Z,22.08
2022-10-01T05:00:06.480Z,22.06
2022-10-01T05:01:08.661Z,22.07
2022-10-01T05:02:11.048Z,22.07
2022-10-01T05:03:13.697Z,22.06
2022-10-01T05:04:16.779Z,22.06
2022-10-01T05:05:20.826Z,22.06
2022-10-01T05:06:23.799Z,22.07
2022-10-01T05:07:26.979Z,22.06
2022-10-01T05:08:30.846Z,22.06
2022-10-01T05:09:33.999Z,22.06
2022-10-01T05:10:36.863Z,22.06
2022-10-01T05:11:38.874Z,22.06
2022-10-01T05:12:41.345Z,22.07
2022-10-01T05:13:43.559Z,22.06
2022-10-01T05:14:45.626Z,22.04
2022-10-01T05:15:48.947Z,22.05
2022-10-01T05:16:51.502Z,22.06
2022-10-01T05:17:54.072Z,22.05
2022-10-01T05:18:56.508Z,22.05
2022-10-01T05:19:58.625Z,22.05
2022-10-01T05:21:04.819Z,22.05
2022-10-01T05:22:07.171Z,22.05
2022-10-01T05:23:10.284Z,22.05
2022-10-01T05:24:13.162Z,22.05
2022-10-01T05:25:17.256Z,22.05
2022-10-01T05:26:19.437Z,22.05
2022-10-01T05:27:22.055Z,22.05
2022-10-01T05:28:26.766Z,22.07
2022-10-01T05:29:29.575Z,22.07
2022-10-01T05:30:32.307Z,22.09
2022-10-01T05:31:34.684Z,22.11
2022-10-01T05:32:37.186Z,22.11
2022-10-01T05:33:40.553Z,22.12
2022-10-01T05:34:42.720Z,22.13
2022-10-01T05:35:44.872Z,22.13
2022-10-01T05:36:47.101Z,22.14
2022-10-01T05:37:54.405Z,22.14
2022-10-01T05:38:57.167Z,22.15
2022-10-01T05:40:00.467Z,22.15
2022-10-01T05:41:05.631Z,22.15
2022-10-01T05:42:08.451Z,22.14
2022-10-01T05:43:10.721Z,22.14
2022-10-01T05:44:12.742Z,22.13
2022-10-01T05:45:16.925Z,22.14
2022-10-01T05:46:19.991Z,22.13
2022-10-01T05:47:22.248Z,22.13
2022-10-01T05:48:24.466Z,22.12
2022-10-01T05:49:26.594Z,22.12
2022-10-01T05:50:29.582Z,22.12
2022-10-01T05:51:33.015Z,22.12
2022-10-01T05:52:36.013Z,22.14
2022-10-01T05:53:38.309Z,22.14
2022-10-01T05:54:40.537Z,22.13
2022-10-01T05:55:42.565Z,22.14
2022-10-01T05:56:45.339Z,22.14
2022-10-01T05:57:57.611Z,22.14
2022-10-01T05:58:59.919Z,22.14
2022-10-01T06:00:02.388Z,22.15
2022-10-01T06:01:06.476Z,22.16
2022-10-01T06:02:09.220Z,22.16
2022-10-01T06:03:11.756Z,22.15
2022-10-01T06:04:13.969Z,22.14
2022-10-01T06:05:17.050Z,22.15
2022-10-01T06:07:34.917Z,22.25
2022-10-01T06:08:36.928Z,22.15
2022-10-01T06:09:39.116Z,22.16
2022-10-01T06:10:42.192Z,22.17
2022-10-01T06:11:45.833Z,22.16
2022-10-01T06:12:48.286Z,22.16
2022-10-01T06:13:50.502Z,22.17
2022-10-01T06:14:53.170Z,22.15
2022-10-01T06:15:55.344Z,22.01
2022-10-01T06:16:57.462Z,22.16
2022-10-01T06:18:03.947Z,22.16
2022-10-01T06:19:06.106Z,22.16
2022-10-01T06:20:09.611Z,22.16
2022-10-01T06:21:12.633Z,22.18
2022-10-01T06:22:15.911Z,22.17
2022-10-01T06:23:18.084Z,22.18
2022-10-01T06:24:20.201Z,22.18
2022-10-01T06:25:22.839Z,22.19
2022-10-01T06:26:25.059Z,22.15
2022-10-01T06:27:27.401Z,22.15
2022-10-01T06:28:29.649Z,22.21
2022-10-01T06:29:31.845Z,22.21
2022-10-01T06:30:35.804Z,22.21
2022-10-01T06:31:38.649Z,22.22
2022-10-01T06:32:42.304Z,22.23
2022-10-01T06:33:45.711Z,22.23
2022-10-01T06:34:48.251Z,22.23
2022-10-01T06:35:51.101Z,22.23
2022-10-01T06:36:53.571Z,22.22
2022-10-01T06:37:57.518Z,22.22
2022-10-01T06:38:59.763Z,22.21
2022-10-01T06:40:02.194Z,22.21
2022-10-01T06:41:05.040Z,22.21
2022-10-01T06:42:07.064Z,22.20
2022-10-01T06:43:09.090Z,22.21
2022-10-01T06:44:11.383Z,22.21
2022-10-01T06:45:13.838Z,22.21
2022-10-01T06:46:16.900Z,22.21
2022-10-01T06:47:21.370Z,22.21
2022-10-01T06:48:23.739Z,22.21
2022-10-01T06:49:25.814Z,22.22
2022-10-01T06:50:28.324Z,22.22
2022-10-01T06:51:30.477Z,22.21
2022-10-01T06:52:33.739Z,22.22
2022-10-01T06:53:35.885Z,22.23
2022-10-01T06:54:37.897Z,22.23
2022-10-01T06:55:40.000Z,22.22
2022-10-01T06:56:43.284Z,22.23
2022-10-01T06:57:47.702Z,22.21
2022-10-01T06:58:51.089Z,22.23
2022-10-01T06:59:53.275Z,22.23
2022-10-01T07:00:59.464Z,22.23
2022-10-01T07:02:03.476Z,22.23
2022-10-01T07:03:13.958Z,22.22
2022-10-01T07:04:16.152Z,22.22
2022-10-01T07:05:18.338Z,22.22
2022-10-01T07:06:20.691Z,22.22
2022-10-01T07:07:27.017Z,22.23
2022-10-01T07:08:27.862Z,22.21
2022-10-01T07:09:30.053Z,22.18
2022-10-01T07:10:34.279Z,22.16
2022-10-01T07:11:36.945Z,22.16
2022-10-01T07:12:39.347Z,22.17
2022-10-01T07:13:41.493Z,22.19
2022-10-01T07:14:45.398Z,22.17
2022-10-01T07:15:47.524Z,22.13
2022-10-01T07:16:49.678Z,22.10
2022-10-01T07:17:51.964Z,22.11
2022-10-01T07:18:54.472Z,22.09
2022-10-01T07:19:57.164Z,22.06
2022-10-01T07:21:00.274Z,22.05
2022-10-01T07:22:07.271Z,22.01
2022-10-01T07:23:12.170Z,21.98
2022-10-01T07:24:19.309Z,21.97
2022-10-01T07:26:35.478Z,22.04
2022-10-01T07:27:37.962Z,21.91
2022-10-01T07:28:40.101Z,21.91
2022-10-01T07:29:42.198Z,21.90
2022-10-01T07:31:00.525Z,21.89
2022-10-01T07:32:02.752Z,21.87
2022-10-01T07:33:05.625Z,21.83
2022-10-01T07:34:07.886Z,21.82
2022-10-01T07:35:10.238Z,21.81
2022-10-01T07:36:13.393Z,21.82
2022-10-01T07:37:17.315Z,21.84
2022-10-01T07:38:20.524Z,21.86
2022-10-01T07:39:23.281Z,21.87
2022-10-01T07:40:25.949Z,21.88
2022-10-01T07:41:29.018Z,21.85
2022-10-01T07:42:32.681Z,21.83
2022-10-01T07:43:35.005Z,21.82
2022-10-01T07:44:39.245Z,21.83
2022-10-01T07:45:41.540Z,21.81
2022-10-01T07:46:44.014Z,21.82
2022-10-01T07:49:00.989Z,21.87
2022-10-01T07:50:04.698Z,21.77
2022-10-01T07:51:07.617Z,21.75
2022-10-01T07:52:13.251Z,21.76
2022-10-01T07:53:15.802Z,21.75
2022-10-01T07:54:17.961Z,21.76
2022-10-01T07:55:21.006Z,21.76
2022-10-01T07:56:23.265Z,21.77
2022-10-01T07:57:25.363Z,21.76
2022-10-01T07:58:27.463Z,21.76
2022-10-01T07:59:29.455Z,21.77
2022-10-01T08:00:32.337Z,21.80
2022-10-01T08:01:35.946Z,21.78
2022-10-01T08:02:38.440Z,21.81
2022-10-01T08:03:41.675Z,21.86
2022-10-01T08:04:44.104Z,21.87
2022-10-01T08:05:47.880Z,21.88
2022-10-01T08:06:50.403Z,21.88
2022-10-01T08:07:52.688Z,21.88
2022-10-01T08:08:55.746Z,21.89
2022-10-01T08:09:57.786Z,21.90
2022-10-01T08:11:02.070Z,21.89
2022-10-01T08:12:05.413Z,21.90
2022-10-01T08:13:14.295Z,21.89
2022-10-01T08:14:16.837Z,21.86
2022-10-01T08:15:18.906Z,21.87
2022-10-01T08:16:21.142Z,21.87
2022-10-01T08:17:28.552Z,21.87
2022-10-01T08:18:27.600Z,21.87
2022-10-01T08:19:29.729Z,21.84
2022-10-01T08:20:33.128Z,21.85
2022-10-01T08:21:35.728Z,21.84
2022-10-01T08:22:42.059Z,21.83
2022-10-01T08:23:43.179Z,21.82
2022-10-01T08:24:45.780Z,21.79
2022-10-01T08:25:48.078Z,21.80
2022-10-01T08:26:52.013Z,21.82
2022-10-01T08:27:54.363Z,21.87
2022-10-01T08:28:56.413Z,21.88
2022-10-01T08:29:59.736Z,21.90
2022-10-01T08:31:05.975Z,21.91
2022-10-01T08:32:09.089Z,21.91
2022-10-01T08:33:12.211Z,21.91
2022-10-01T08:34:14.631Z,21.90
2022-10-01T08:35:18.199Z,21.90
2022-10-01T08:36:21.199Z,21.89
2022-10-01T08:37:27.002Z,21.87
2022-10-01T08:38:29.049Z,21.88
2022-10-01T08:39:31.167Z,21.92
2022-10-01T08:40:33.709Z,21.92
2022-10-01T08:41:51.478Z,21.92
2022-10-01T08:42:56.781Z,21.89
2022-10-01T08:43:59.546Z,21.90
2022-10-01T08:45:05.205Z,21.90
2022-10-01T08:46:16.612Z,21.91
2022-10-01T08:47:39.983Z,21.89
2022-10-01T08:49:03.615Z,21.87
2022-10-01T08:51:27.354Z,21.96
2022-10-01T08:52:31.934Z,21.85
2022-10-01T08:53:44.272Z,21.83
2022-10-01T08:54:52.806Z,21.83
2022-10-01T08:55:55.027Z,21.86
2022-10-01T08:57:02.066Z,21.89
2022-10-01T08:58:12.333Z,21.90
2022-10-01T08:59:36.444Z,21.92
2022-10-01T09:00:40.701Z,21.94
2022-10-01T09:01:45.118Z,21.95
2022-10-01T09:02:47.311Z,21.94
2022-10-01T09:03:52.578Z,21.93
2022-10-01T09:05:02.068Z,21.89
2022-10-01T09:06:25.188Z,21.86
2022-10-01T09:07:31.245Z,21.80
2022-10-01T09:08:58.822Z,21.73
2022-10-01T09:10:23.159Z,21.70
2022-10-01T09:11:32.492Z,21.68
2022-10-01T09:12:40.645Z,21.69
2022-10-01T09:13:56.001Z,21.70
2022-10-01T09:15:02.309Z,21.70
2022-10-01T09:16:25.335Z,21.70
2022-10-01T09:17:56.238Z,21.70
2022-10-01T09:19:26.406Z,21.73
2022-10-01T09:20:41.193Z,21.75
2022-10-01T09:22:01.724Z,21.79
2022-10-01T09:23:25.414Z,21.80
2022-10-01T09:24:43.255Z,21.81
2022-10-01T09:25:47.690Z,21.83
2022-10-01T09:26:49.908Z,21.83
2022-10-01T09:28:14.284Z,21.80
2022-10-01T09:30:43.803Z,21.86
2022-10-01T09:31:46.283Z,21.76
2022-10-01T09:34:21.769Z,21.92
2022-10-01T09:35:30.619Z,21.82
2022-10-01T09:36:39.215Z,21.82
2022-10-01T09:37:47.396Z,21.82
2022-10-01T09:39:21.606Z,21.80
2022-10-01T09:40:35.351Z,21.82
2022-10-01T09:41:37.595Z,21.85
2022-10-01T09:42:39.773Z,21.86
2022-10-01T09:43:41.964Z,21.85
2022-10-01T09:44:44.268Z,21.84
2022-10-01T09:45:46.400Z,21.84
2022-10-01T09:46:49.264Z,21.83
2022-10-01T09:47:52.568Z,21.81
2022-10-01T09:49:05.988Z,21.81
2022-10-01T09:50:15.143Z,21.80
2022-10-01T09:51:22.404Z,21.81
2022-10-01T09:52:36.431Z,21.80
2022-10-01T09:53:41.832Z,21.79
2022-10-01T09:54:50.686Z,21.78
2022-10-01T09:55:55.677Z,21.78
2022-10-01T09:57:00.903Z,21.80
2022-10-01T09:59:24.319Z,21.91
2022-10-01T10:01:40.559Z,21.83
2022-10-01T10:06:16.906Z,21.99
2022-10-01T10:07:23.175Z,21.88
2022-10-01T10:08:28.039Z,21.89
2022-10-01T10:09:31.642Z,21.90
2022-10-01T10:10:34.589Z,21.92
2022-10-01T10:11:37.114Z,21.93
2022-10-01T10:12:39.515Z,21.95
2022-10-01T10:13:54.428Z,21.97
2022-10-01T10:14:58.565Z,21.96
2022-10-01T10:16:06.619Z,21.95
2022-10-01T10:17:14.551Z,21.95
2022-10-01T10:18:23.780Z,21.97
2022-10-01T10:19:26.642Z,21.94
2022-10-01T10:20:31.507Z,21.95
2022-10-01T10:21:33.765Z,21.93
2022-10-01T10:22:36.794Z,21.95
2022-10-01T10:23:53.580Z,21.95
2022-10-01T10:24:55.863Z,21.95
2022-10-01T10:26:02.300Z,21.95
2022-10-01T10:27:07.534Z,21.96
2022-10-01T10:29:36.447Z,22.05
2022-10-01T10:30:38.944Z,21.95
2022-10-01T10:31:43.291Z,21.96
2022-10-01T10:32:45.621Z,21.98
2022-10-01T10:33:53.267Z,21.98
2022-10-01T10:35:02.696Z,22.02
2022-10-01T10:36:04.589Z,22.02
2022-10-01T10:38:24.867Z,22.13
2022-10-01T10:39:29.959Z,22.03
2022-10-01T10:40:35.908Z,22.02
2022-10-01T10:41:38.258Z,22.03
2022-10-01T10:42:46.717Z,22.06
2022-10-01T10:43:49.052Z,22.09
2022-10-01T10:44:54.227Z,22.10
2022-10-01T10:45:56.585Z,22.12
2022-10-01T10:47:04.717Z,22.13
2022-10-01T10:48:07.970Z,22.12
2022-10-01T10:49:16.876Z,22.12
2022-10-01T10:50:38.868Z,22.11
2022-10-01T10:53:14.996Z,22.22
2022-10-01T10:54:18.910Z,22.10
2022-10-01T10:55:27.077Z,22.07
2022-10-01T10:56:29.831Z,22.06
2022-10-01T10:57:34.592Z,22.07
2022-10-01T10:58:38.020Z,22.09
2022-10-01T10:59:40.568Z,22.11
2022-10-01T11:00:47.097Z,22.13
2022-10-01T11:01:51.287Z,22.15
2022-10-01T11:02:56.190Z,22.15
2022-10-01T11:03:59.612Z,22.13
2022-10-01T11:05:05.056Z,22.12
2022-10-01T11:06:13.338Z,22.12
2022-10-01T11:07:21.180Z,22.11
2022-10-01T11:08:24.023Z,22.11
2022-10-01T11:09:28.850Z,22.10
2022-10-01T11:11:58.344Z,22.23
2022-10-01T11:13:06.905Z,22.12
2022-10-01T11:14:29.440Z,22.13
2022-10-01T11:17:27.080Z,22.24
2022-10-01T11:18:40.340Z,22.12
2022-10-01T11:19:46.406Z,22.07
2022-10-01T11:21:07.085Z,22.04
2022-10-01T11:22:34.727Z,22.03
2022-10-01T11:25:23.838Z,22.10
2022-10-01T11:28:11.086Z,22.06
2022-10-01T11:29:46.263Z,21.94
2022-10-01T11:30:56.279Z,21.95
2022-10-01T11:33:34.751Z,22.05
2022-10-01T11:34:45.633Z,21.93
2022-10-01T11:36:23.364Z,21.94
2022-10-01T11:37:38.359Z,21.94
2022-10-01T11:39:01.728Z,21.97
2022-10-01T11:40:23.258Z,22.01
2022-10-01T11:41:29.808Z,22.01
2022-10-01T11:42:33.970Z,21.98
2022-10-01T11:43:38.497Z,21.94
2022-10-01T11:44:46.763Z,21.98
2022-10-01T11:45:51.404Z,22.01
2022-10-01T11:47:08.504Z,22.04
2022-10-01T11:48:15.704Z,22.05
2022-10-01T11:49:22.441Z,22.07
2022-10-01T11:50:29.360Z,22.08
2022-10-01T11:53:02.534Z,22.23
2022-10-01T11:54:06.910Z,22.14
2022-10-01T11:55:21.964Z,22.11
2022-10-01T11:56:26.827Z,22.10
2022-10-01T11:57:31.122Z,22.08
2022-10-01T11:58:57.992Z,22.08
2022-10-01T12:00:05.791Z,22.07
2022-10-01T12:01:14.113Z,22.05
2022-10-01T12:02:32.803Z,22.04
2022-10-01T12:05:11.479Z,22.18
2022-10-01T12:06:14.846Z,22.09
2022-10-01T12:07:51.911Z,22.10
2022-10-01T12:08:58.908Z,22.11
2022-10-01T12:10:21.241Z,22.13
2022-10-01T12:11:28.231Z,22.15
2022-10-01T12:12:34.043Z,22.16
2022-10-01T12:13:42.230Z,22.17
2022-10-01T12:14:49.764Z,22.16
2022-10-01T12:16:11.771Z,22.14
2022-10-01T12:17:20.931Z,22.15
2022-10-01T12:18:41.867Z,22.16
2022-10-01T12:19:46.425Z,22.18
2022-10-01T12:22:24.869Z,22.31
2022-10-01T12:23:44.093Z,22.21
2022-10-01T12:24:46.243Z,22.21
2022-10-01T12:27:31.901Z,22.33
2022-10-01T12:28:40.437Z,22.22
2022-10-01T12:29:49.333Z,22.19
2022-10-01T12:32:30.275Z,22.29
2022-10-01T12:33:55.716Z,22.20
2022-10-01T12:35:14.543Z,22.21
2022-10-01T12:36:23.559Z,22.22
2022-10-01T12:37:41.867Z,22.24
2022-10-01T12:39:12.212Z,22.25
2022-10-01T12:40:26.233Z,22.23
2022-10-01T12:41:35.864Z,22.20
2022-10-01T12:42:54.520Z,22.19
2022-10-01T12:44:00.398Z,22.19
2022-10-01T12:45:06.389Z,22.20
2022-10-01T12:46:18.482Z,22.20
2022-10-01T12:47:34.632Z,22.20
2022-10-01T12:48:59.355Z,22.21
2022-10-01T12:50:40.739Z,22.21
2022-10-01T12:51:47.047Z,22.22
2022-10-01T12:54:50.330Z,22.35
2022-10-01T12:57:23.009Z,22.33
2022-10-01T12:58:44.831Z,22.20
2022-10-01T13:00:08.864Z,22.15
2022-10-01T13:02:41.700Z,22.26
2022-10-01T13:04:16.174Z,22.18
2022-10-01T13:07:06.509Z,22.30
2022-10-01T13:09:48.796Z,22.30
2022-10-01T13:11:02.087Z,22.19
2022-10-01T13:12:14.703Z,22.15
2022-10-01T13:13:27.864Z,22.11
2022-10-01T13:14:31.758Z,22.09
2022-10-01T13:15:37.480Z,22.10
2022-10-01T13:16:47.271Z,22.11
2022-10-01T13:18:05.432Z,22.12
2022-10-01T13:21:10.104Z,22.27
2022-10-01T13:22:15.942Z,22.17
2022-10-01T13:23:42.522Z,22.15
2022-10-01T13:26:13.930Z,22.25
2022-10-01T13:27:22.881Z,22.15
2022-10-01T13:28:47.124Z,22.15
2022-10-01T13:31:14.440Z,22.26
2022-10-01T13:33:37.794Z,22.28
2022-10-01T13:34:41.352Z,22.16
2022-10-01T13:35:47.371Z,22.16
2022-10-01T13:36:49.721Z,22.17
2022-10-01T13:37:52.957Z,22.17
2022-10-01T13:38:56.164Z,22.18
2022-10-01T13:39:58.891Z,22.18
2022-10-01T13:41:02.967Z,22.18
2022-10-01T13:42:07.413Z,22.19
2022-10-01T13:43:22.926Z,22.22
2022-10-01T13:44:29.010Z,22.25
2022-10-01T13:45:40.254Z,22.26
2022-10-01T13:46:55.436Z,22.24
2022-10-01T13:48:14.737Z,22.21
2022-10-01T13:49:28.191Z,22.17
2022-10-01T13:50:31.505Z,22.14
2022-10-01T13:51:35.947Z,22.14
2022-10-01T13:52:38.352Z,22.18
2022-10-01T13:53:44.162Z,22.18
2022-10-01T13:54:50.446Z,22.15
2022-10-01T13:55:52.651Z,22.15
2022-10-01T13:56:56.156Z,22.14
2022-10-01T13:58:06.382Z,22.14
2022-10-01T14:00:49.536Z,22.28
2022-10-01T14:01:51.853Z,22.15
2022-10-01T14:04:20.809Z,22.26
2022-10-01T14:05:39.205Z,22.16
2022-10-01T14:06:48.792Z,22.15
2022-10-01T14:07:53.750Z,22.16
2022-10-01T14:09:16.125Z,22.17
2022-10-01T14:10:18.698Z,22.18
2022-10-01T14:11:25.397Z,22.18
2022-10-01T14:12:30.390Z,22.19
2022-10-01T14:13:32.658Z,22.20
2022-10-01T14:14:40.029Z,22.20
2022-10-01T14:15:43.859Z,22.21
2022-10-01T14:16:47.410Z,22.23
2022-10-01T14:17:51.161Z,22.23
2022-10-01T14:18:53.414Z,22.25
2022-10-01T14:19:56.789Z,22.26
2022-10-01T14:21:16.187Z,22.28
2022-10-01T14:22:31.390Z,22.28
2022-10-01T14:25:13.237Z,22.38
2022-10-01T14:26:35.038Z,22.28
2022-10-01T14:27:42.328Z,22.29
2022-10-01T14:28:50.006Z,22.29
2022-10-01T14:30:01.466Z,22.29
2022-10-01T14:31:20.795Z,22.29
2022-10-01T14:32:36.500Z,22.27
2022-10-01T14:33:54.960Z,22.25
2022-10-01T14:35:34.841Z,22.24
2022-10-01T14:36:44.520Z,22.21
2022-10-01T14:37:46.663Z,22.18
2022-10-01T14:38:49.822Z,22.17
2022-10-01T14:41:23.566Z,22.26
2022-10-01T14:42:25.992Z,22.16
2022-10-01T14:43:30.134Z,22.15
2022-10-01T14:44:41.159Z,22.16
2022-10-01T14:46:10.910Z,22.16
2022-10-01T14:47:20.101Z,22.15
2022-10-01T14:48:23.297Z,22.16
2022-10-01T14:50:49.414Z,22.29
2022-10-01T14:53:14.022Z,22.30
2022-10-01T14:54:16.479Z,22.19
2022-10-01T14:55:21.383Z,22.20
2022-10-01T14:56:25.035Z,22.23
2022-10-01T14:57:29.692Z,22.25
2022-10-01T14:58:43.409Z,22.25
2022-10-01T14:59:46.140Z,22.26
2022-10-01T15:00:51.306Z,22.29
2022-10-01T15:01:58.689Z,22.28
2022-10-01T15:03:11.099Z,22.29
2022-10-01T15:04:14.424Z,22.30
2022-10-01T15:06:39.081Z,22.42
2022-10-01T15:07:42.413Z,22.30
2022-10-01T15:08:45.882Z,22.32
2022-10-01T15:09:48.288Z,22.32
2022-10-01T15:10:55.595Z,22.30
2022-10-01T15:11:58.187Z,22.30
2022-10-01T15:13:00.276Z,22.31
2022-10-01T15:14:04.503Z,22.33
2022-10-01T15:15:15.992Z,22.33
2022-10-01T15:16:20.817Z,22.34
2022-10-01T15:17:24.742Z,22.32
2022-10-01T15:18:26.928Z,22.32
2022-10-01T15:19:30.094Z,22.32
2022-10-01T15:20:32.826Z,22.32
2022-10-01T15:21:36.921Z,22.33
2022-10-01T15:22:39.086Z,22.33